Main page
METAR-TAF:

METAR-TAF

Airports :

Cardiff, Wales

Cardiff Airport

latitude: 51-24N, longitude: 003-21W, elevation: 67 m

Current weather observation

The report was made 23 minutes ago, at 18:20 UTC
Wind 16 kt from the East/Northeast
Temperature 14°C
Humidity 63%
Pressure 1020 hPa
Visibility 10 km or more

METAR: EGFF 261820Z AUTO 07016KT 9999 NCD 14/07 Q1020

Time: 19:43 (18:43 UTC)

Forecast

The report was made 1 hour and 47 minutes ago, at 16:56 UTC
Forecast valid from 26 at 18 UTC to 27 at 18 UTC
Wind 16 kt from the East/Northeast
Visibility 10 km or more
Few clouds at a height of 3000 ft
Temporary
from 27 at 04 UTC to 27 at 10 UTC
Broken clouds at a height of 1200 ft

TAF: EGFF 261656Z 2618/2718 07016KT 9999 FEW030 TEMPO 2704/2710 BKN012

Weather observations and forecasts of more than 4000 airports (METAR and TAF reports).

The available stations are represented by yellow and red dots on the map.

Hover mouse over dot to see the name of the station.

Then click to see weather observations and forecasts.

To change the map : click on the green buttons with a black cross to zoom in, on the green button with a dash to zoom out, or on the green arrows for adjacent maps.


METAR-TAF: